Terminal Aerodrome Forecast
Issued by NWS St Louis, MO

Home | Current Version | Previous Version | Text Only | Print | Product List | Glossary On
Versions: 1 2 3 4 5 6 7 8 9 10 11 12 13 14 15
000
FTUS43 KLSX 272307 AAA
TAFCOU
TAF AMD
KCOU 272307Z 2723/2818 12010KT 3SM -SHRA SCT010 OVC025
      TEMPO 2723/2802 1SM +TSRA BKN005 OVC010CB
     FM280300 16011KT P6SM VCSH BKN070
     FM280900 17009KT P6SM BKN060=

USA.gov is the U.S. government's official web portal to all federal, state and local government web resources and services.